»·PEaware :: SWA234 KSNA-KSMF

SWA234 :: KSNA-KSMF

FLIGHT INFORMATION

Flight Status: Arrived
Operator:
Southwest Airlines
More flights by this operator :: More flights under this callsign
Pilot: Drew L. (13237)
Aircraft: BOEING 737-800
(B738)
More flights by this aircraft type
Origin: KSNA John Wayne-Orange Co
United States
Destination: KSMF Sacramento Intl
United States
More flights between these airports :: More routes between these airports
Route: HHERO2 EHF NURAY SUUTR2
File this flight plan on PilotEdge
Remarks: PBN / A1B1C1D1S1S2 DOF / 180311 REG / N806SB EET / KZOA0031 OPR / SWA PER / C RMK / TCAS SIMBRIEF
Altitude:
(Current/Filed)
36,000ft
Speed:
(Current/Filed)
456kts
Departed: 10-Mar-18 08:32 PM
Arrived: 10-Mar-18 09:42 PM
Distance/Time
Traveled:
351nm/1:10
Distance/Time
To Go:
Arrived

Flight Plot

Page will automatically refresh every two minutes.

Flight plan parsing failed; only flown route is shown


Map Options




Map Legend


Flown Route
Filed Route
Departure Airport
Arrival Airport
Navaid (VOR, NDB)
Fix

Horizontal Profiles

Position Reports

Time Latitude Longitude Heading Altitude Ground
Speed
10-Mar-18 20:02 33.676750 -117.864005 117 63ft 0kts
10-Mar-18 20:03 33.676750 -117.864005 117 63ft 0kts
10-Mar-18 20:04 33.676750 -117.864005 117 63ft 0kts
10-Mar-18 20:05 33.676750 -117.864005 117 63ft 0kts
10-Mar-18 20:06 33.676750 -117.864005 117 63ft 0kts
10-Mar-18 20:07 33.676750 -117.864005 117 63ft 0kts
10-Mar-18 20:08 33.676750 -117.864005 117 63ft 0kts
10-Mar-18 20:09 33.676750 -117.864005 117 63ft 0kts
10-Mar-18 20:10 33.676750 -117.864005 117 63ft 0kts
10-Mar-18 20:11 33.676750 -117.864005 117 63ft 0kts
10-Mar-18 20:12 33.676750 -117.864005 117 63ft 0kts
10-Mar-18 20:13 33.676750 -117.864005 117 63ft 0kts
10-Mar-18 20:14 33.676750 -117.864005 117 63ft 0kts
10-Mar-18 20:15 33.676750 -117.864005 117 63ft 0kts
10-Mar-18 20:16 33.676750 -117.864005 117 63ft 0kts
10-Mar-18 20:17 33.676750 -117.864005 117 63ft 0kts
10-Mar-18 20:18 33.676750 -117.864005 117 63ft 0kts
10-Mar-18 20:19 33.676750 -117.864005 117 63ft 0kts
10-Mar-18 20:20 33.676750 -117.864006 117 63ft 0kts
10-Mar-18 20:21 33.676750 -117.864006 117 63ft 0kts
10-Mar-18 20:22 33.676748 -117.864011 117 63ft 0kts
10-Mar-18 20:23 33.676816 -117.864621 66 63ft 2kts
10-Mar-18 20:24 33.676599 -117.864880 27 63ft 0kts
10-Mar-18 20:25 33.676600 -117.864879 27 63ft 0kts
10-Mar-18 20:26 33.676600 -117.864879 27 63ft 0kts
10-Mar-18 20:27 33.678040 -117.863967 28 63ft 14kts
10-Mar-18 20:28 33.680635 -117.863032 298 63ft 0kts
10-Mar-18 20:29 33.680637 -117.863035 298 63ft 0kts
10-Mar-18 20:30 33.681207 -117.865322 208 63ft 0kts
10-Mar-18 20:31 33.666995 -117.874430 206 135ft 165kts
10-Mar-18 20:32 33.625741 -117.897314 184 2317ft 171kts
10-Mar-18 20:33 33.572776 -117.901607 199 4389ft 228kts
10-Mar-18 20:34 33.519419 -117.957254 222 7181ft 265kts
10-Mar-18 20:35 33.469520 -118.022071 239 10018ft 271kts
10-Mar-18 20:36 33.431869 -118.100927 238 10035ft 272kts
10-Mar-18 20:37 33.417753 -118.193435 281 12313ft 308kts
10-Mar-18 20:38 33.438105 -118.293577 279 15291ft 315kts
10-Mar-18 20:39 33.477593 -118.388246 293 16025ft 324kts
10-Mar-18 20:40 33.532953 -118.472191 330 16946ft 349kts
10-Mar-18 20:41 33.634242 -118.473086 1 19238ft 385kts
10-Mar-18 20:42 33.741576 -118.458676 354 21243ft 394kts
10-Mar-18 20:43 33.849272 -118.459455 351 23019ft 404kts
10-Mar-18 20:44 33.962225 -118.459770 351 24663ft 414kts
10-Mar-18 20:45 34.076303 -118.470586 342 26129ft 413kts
10-Mar-18 20:46 34.187021 -118.488155 342 27407ft 421kts
10-Mar-18 20:47 34.302960 -118.506055 342 28563ft 428kts
10-Mar-18 20:48 34.421437 -118.524299 342 29833ft 428kts
10-Mar-18 20:49 34.538890 -118.542466 341 31103ft 424kts
10-Mar-18 20:50 34.654861 -118.560479 340 32170ft 420kts
10-Mar-18 20:51 34.769947 -118.578412 340 33291ft 419kts
10-Mar-18 20:52 34.884323 -118.596242 339 34588ft 413kts
10-Mar-18 20:53 34.998800 -118.616570 329 35136ft 409kts
10-Mar-18 20:54 35.081928 -118.686846 309 35947ft 381kts
10-Mar-18 20:55 35.162868 -118.768968 309 36027ft 402kts
10-Mar-18 20:56 35.237965 -118.845359 310 36015ft 422kts
10-Mar-18 20:57 35.327915 -118.936932 311 36009ft 421kts
10-Mar-18 20:58 35.417699 -119.028749 312 36011ft 421kts
10-Mar-18 20:59 35.511956 -119.113864 327 36042ft 438kts
10-Mar-18 21:00 35.623763 -119.172202 328 36041ft 439kts
10-Mar-18 21:01 35.735047 -119.231849 328 36052ft 438kts
10-Mar-18 21:02 35.846880 -119.292199 327 36050ft 438kts
10-Mar-18 21:03 35.958242 -119.352516 328 36047ft 439kts
10-Mar-18 21:04 36.069534 -119.412969 328 36045ft 438kts
10-Mar-18 21:05 36.173655 -119.469694 328 36036ft 439kts
10-Mar-18 21:06 36.282459 -119.529172 328 36056ft 439kts
10-Mar-18 21:07 36.394092 -119.590383 328 36058ft 439kts
10-Mar-18 21:08 36.505376 -119.651595 327 35172ft 441kts
10-Mar-18 21:09 36.615777 -119.715596 319 33821ft 431kts
10-Mar-18 21:10 36.716764 -119.796039 320 32333ft 438kts
10-Mar-18 21:11 36.819553 -119.876905 320 30369ft 440kts
10-Mar-18 21:12 36.923683 -119.958938 321 27700ft 446kts
10-Mar-18 21:13 37.029488 -120.042655 323 24938ft 467kts
10-Mar-18 21:14 37.139376 -120.129818 325 24047ft 485kts
10-Mar-18 21:15 37.249258 -120.217166 324 24031ft 456kts
10-Mar-18 21:16 37.356810 -120.303136 324 24025ft 460kts
10-Mar-18 21:17 37.463948 -120.389037 324 24016ft 456kts
10-Mar-18 21:18 37.563783 -120.487695 318 22990ft 459kts
10-Mar-18 21:19 37.662907 -120.587523 320 20507ft 461kts
10-Mar-18 21:20 37.759649 -120.684683 319 18642ft 424kts
10-Mar-18 21:21 37.824112 -120.749822 319 17544ft 390kts
10-Mar-18 21:22 37.903662 -120.830454 320 16166ft 386kts
10-Mar-18 21:23 37.986436 -120.914556 320 14733ft 376kts
10-Mar-18 21:24 38.065520 -120.995124 320 13370ft 353kts
10-Mar-18 21:25 38.127445 -121.081809 309 12130ft 321kts
10-Mar-18 21:26 38.183380 -121.164873 310 11238ft 289kts
10-Mar-18 21:27 38.236105 -121.238063 314 10965ft 270kts
10-Mar-18 21:28 38.289686 -121.306208 314 10209ft 271kts
10-Mar-18 21:29 38.342543 -121.373263 314 9342ft 268kts
10-Mar-18 21:30 38.395048 -121.439990 314 8480ft 265kts
10-Mar-18 21:31 38.446969 -121.506121 314 7632ft 262kts
10-Mar-18 21:32 38.500344 -121.567862 321 6797ft 259kts
10-Mar-18 21:33 38.556707 -121.624298 322 5969ft 254kts
10-Mar-18 21:34 38.608407 -121.676381 324 5193ft 239kts
10-Mar-18 21:35 38.670570 -121.689509 353 4384ft 223kts
10-Mar-18 21:36 38.729309 -121.694922 357 3173ft 200kts
10-Mar-18 21:37 38.782127 -121.694756 15 2994ft 190kts
10-Mar-18 21:38 38.788885 -121.635717 105 2677ft 181kts
10-Mar-18 21:39 38.759930 -121.599017 185 1174ft 150kts
10-Mar-18 21:40 38.719598 -121.600859 181 311ft 146kts
10-Mar-18 21:41 38.690942 -121.601310 159 30ft 19kts
10-Mar-18 21:42 38.690575 -121.599556 90 30ft 8kts
10-Mar-18 21:43 38.691814 -121.598719 3 30ft 2kts
10-Mar-18 21:44 38.694381 -121.595032 36 30ft 10kts
10-Mar-18 21:45 38.695139 -121.594533 26 30ft 0kts
10-Mar-18 21:46 38.695139 -121.594533 26 30ft 0kts

Navigation Log

Ident Type
Flight plan parsing failed, navigation log unavailable